createdAt,value
2019-04-30T00:01:55.817Z,21.13
2019-04-30T00:04:34.512Z,23.40
2019-04-30T00:07:05.520Z,21.10
2019-04-30T00:09:39.158Z,20.67
2019-04-30T00:12:11.825Z,21.43
2019-04-30T00:14:44.888Z,28.03
2019-04-30T00:17:19.681Z,32.23
2019-04-30T00:19:58.243Z,31.23
2019-04-30T00:22:33.170Z,32.23
2019-04-30T00:24:58.515Z,30.70
2019-04-30T00:27:30.877Z,29.73
2019-04-30T00:30:07.298Z,30.67
2019-04-30T00:32:39.063Z,31.10
2019-04-30T00:35:17.381Z,31.03
2019-04-30T00:37:51.689Z,33.10
2019-04-30T00:40:21.720Z,30.47
2019-04-30T00:42:53.137Z,33.20
2019-04-30T00:45:25.286Z,38.17
2019-04-30T00:47:57.273Z,40.20
2019-04-30T00:50:33.930Z,41.73
2019-04-30T00:53:05.890Z,37.70
2019-04-30T00:55:38.115Z,37.13
2019-04-30T00:58:10.667Z,39.60
2019-04-30T01:00:51.573Z,35.70
2019-04-30T01:03:26.905Z,36.30
2019-04-30T01:05:58.859Z,36.57
2019-04-30T01:08:31.230Z,35.13
2019-04-30T01:11:06.530Z,33.77
2019-04-30T01:13:38.942Z,33.97
2019-04-30T01:16:10.965Z,32.80
2019-04-30T01:18:42.961Z,31.47
2019-04-30T01:21:14.953Z,32.30
2019-04-30T01:23:51.788Z,30.93
2019-04-30T01:26:22.864Z,32.50
2019-04-30T01:29:00.573Z,33.23
2019-04-30T01:31:31.725Z,30.30
2019-04-30T01:34:05.055Z,33.50
2019-04-30T01:36:36.308Z,32.83
2019-04-30T01:39:09.479Z,31.20
2019-04-30T01:41:41.585Z,30.93
2019-04-30T01:44:13.570Z,31.73
2019-04-30T01:46:48.216Z,31.10
2019-04-30T01:49:20.383Z,30.20
2019-04-30T01:51:57.080Z,29.90
2019-04-30T01:54:26.597Z,31.80
2019-04-30T01:57:29.696Z,34.37
2019-04-30T02:00:05.573Z,28.93
2019-04-30T02:02:39.561Z,31.70
2019-04-30T02:05:11.471Z,30.20
2019-04-30T02:07:45.928Z,28.60
2019-04-30T02:10:18.622Z,29.90
2019-04-30T02:12:51.208Z,32.40
2019-04-30T02:15:23.196Z,28.97
2019-04-30T02:17:55.152Z,29.80
2019-04-30T02:20:28.690Z,30.90
2019-04-30T02:23:01.009Z,29.93
2019-04-30T02:25:32.970Z,26.70
2019-04-30T02:28:04.939Z,28.77
2019-04-30T02:30:40.206Z,29.50
2019-04-30T02:33:10.703Z,28.27
2019-04-30T02:36:03.707Z,30.03
2019-04-30T02:38:36.022Z,28.53
2019-04-30T02:41:09.977Z,30.03
2019-04-30T02:43:43.601Z,30.73
2019-04-30T02:46:19.066Z,27.07
2019-04-30T02:48:52.417Z,29.00
2019-04-30T02:51:29.910Z,31.93
2019-04-30T02:54:14.089Z,28.43
2019-04-30T02:56:50.715Z,27.10
2019-04-30T02:59:23.046Z,26.20
2019-04-30T03:01:55.038Z,26.50
2019-04-30T03:04:29.246Z,26.20
2019-04-30T03:07:01.006Z,25.57
2019-04-30T03:09:33.744Z,27.87
2019-04-30T03:12:05.761Z,26.03
2019-04-30T03:14:39.946Z,25.37
2019-04-30T03:17:21.132Z,25.33
2019-04-30T03:20:00.213Z,23.50
2019-04-30T03:22:32.030Z,24.90
2019-04-30T03:25:04.009Z,25.70
2019-04-30T03:27:36.043Z,24.37
2019-04-30T03:30:11.905Z,26.23
2019-04-30T03:32:43.286Z,26.60
2019-04-30T03:35:15.678Z,26.80
2019-04-30T03:37:49.640Z,23.60
2019-04-30T03:40:21.373Z,26.07
2019-04-30T03:42:53.412Z,25.93
2019-04-30T03:45:25.337Z,24.30
2019-04-30T03:47:59.609Z,24.33
2019-04-30T03:50:48.185Z,25.53
2019-04-30T03:53:04.966Z,25.97
2019-04-30T03:55:36.973Z,25.90
2019-04-30T03:58:09.316Z,24.80
2019-04-30T04:01:03.288Z,26.30
2019-04-30T04:03:42.044Z,24.97
2019-04-30T04:06:29.136Z,23.27
2019-04-30T04:09:06.903Z,22.67
2019-04-30T04:11:41.788Z,22.07
2019-04-30T04:14:13.832Z,22.77
2019-04-30T04:16:45.811Z,23.17
2019-04-30T04:19:19.694Z,22.53
2019-04-30T04:21:51.518Z,22.50
2019-04-30T04:24:23.492Z,22.50
2019-04-30T04:26:55.474Z,22.43
2019-04-30T04:29:29.821Z,21.93
2019-04-30T04:32:01.269Z,22.03
2019-04-30T04:34:33.310Z,21.10
2019-04-30T04:37:06.310Z,20.37
2019-04-30T04:39:38.882Z,21.20
2019-04-30T04:42:12.042Z,21.37
2019-04-30T04:44:44.037Z,20.70
2019-04-30T04:47:16.390Z,21.67
2019-04-30T04:49:52.960Z,21.93
2019-04-30T04:52:22.985Z,20.10
2019-04-30T04:54:55.072Z,21.90
2019-04-30T04:57:27.113Z,20.00
2019-04-30T05:00:06.573Z,21.23
2019-04-30T05:02:59.361Z,21.43
2019-04-30T05:05:31.503Z,21.83
2019-04-30T05:08:03.571Z,20.17
2019-04-30T05:10:35.647Z,20.50
2019-04-30T05:13:09.219Z,19.70
2019-04-30T05:15:41.339Z,19.17
2019-04-30T05:18:13.457Z,19.27
2019-04-30T05:20:45.657Z,20.67
2019-04-30T05:23:21.546Z,19.37
2019-04-30T05:25:51.325Z,17.60
2019-04-30T05:28:23.378Z,21.20
2019-04-30T05:30:55.385Z,17.83
2019-04-30T05:33:28.582Z,19.37
2019-04-30T05:36:01.187Z,17.13
2019-04-30T05:38:33.196Z,18.53
2019-04-30T05:41:05.171Z,16.93
2019-04-30T05:43:38.705Z,18.60
2019-04-30T05:46:14.035Z,24.30
2019-04-30T05:48:45.281Z,21.83
2019-04-30T05:51:19.285Z,25.57
2019-04-30T05:53:51.270Z,20.33
2019-04-30T05:56:23.398Z,18.77
2019-04-30T05:58:55.433Z,21.13
2019-04-30T06:01:29.365Z,17.67
2019-04-30T06:04:01.155Z,16.97
2019-04-30T06:06:33.694Z,16.33
2019-04-30T06:09:16.088Z,14.57
2019-04-30T06:11:59.143Z,14.60
2019-04-30T06:14:48.940Z,15.33
2019-04-30T06:17:19.731Z,15.03
2019-04-30T06:19:52.096Z,14.50
2019-04-30T06:22:24.543Z,14.70
2019-04-30T06:24:56.494Z,15.17
2019-04-30T06:27:29.225Z,17.23
2019-04-30T06:30:01.382Z,15.83
2019-04-30T06:32:33.630Z,16.80
2019-04-30T06:35:05.915Z,16.97
2019-04-30T06:37:39.045Z,19.20
2019-04-30T06:40:12.337Z,15.60
2019-04-30T06:42:44.381Z,14.43
2019-04-30T06:45:18.984Z,15.43
2019-04-30T06:47:51.508Z,15.90
2019-04-30T06:50:23.635Z,19.23
2019-04-30T06:52:58.794Z,15.50
2019-04-30T06:55:30.904Z,16.87
2019-04-30T06:58:11.934Z,22.93
2019-04-30T07:00:40.663Z,17.40
2019-04-30T07:03:12.711Z,21.67
2019-04-30T07:05:44.648Z,19.43
2019-04-30T07:08:54.814Z,25.83
2019-04-30T07:11:30.986Z,29.27
2019-04-30T07:14:03.011Z,28.27
2019-04-30T07:16:35.012Z,25.50
2019-04-30T07:19:06.978Z,20.87
2019-04-30T07:21:42.784Z,17.43
2019-04-30T07:24:12.813Z,18.27
2019-04-30T07:26:44.952Z,15.77
2019-04-30T07:29:17.110Z,17.37
2019-04-30T07:31:51.579Z,16.10
2019-04-30T07:34:23.870Z,17.60
2019-04-30T07:37:10.711Z,17.20
2019-04-30T07:39:33.315Z,15.93
2019-04-30T07:42:03.706Z,17.00
2019-04-30T07:44:36.720Z,15.53
2019-04-30T07:47:09.674Z,14.60
2019-04-30T07:49:51.563Z,13.37
2019-04-30T07:52:16.343Z,11.43
2019-04-30T07:54:51.580Z,9.40
2019-04-30T07:57:22.776Z,11.80
2019-04-30T07:59:54.877Z,10.00
2019-04-30T08:02:29.749Z,14.35
2019-04-30T08:05:11.171Z,14.53
2019-04-30T08:07:43.252Z,9.68
2019-04-30T08:10:15.499Z,8.85
2019-04-30T08:12:50.423Z,8.50
2019-04-30T08:15:22.072Z,8.80
2019-04-30T08:18:02.626Z,9.00
2019-04-30T08:20:29.543Z,12.67
2019-04-30T08:23:13.391Z,11.35
2019-04-30T08:25:35.394Z,11.57
2019-04-30T08:28:09.099Z,9.43
2019-04-30T08:30:41.305Z,12.53
2019-04-30T08:33:13.307Z,14.33
2019-04-30T08:35:45.440Z,11.87
2019-04-30T08:38:19.115Z,12.07
2019-04-30T08:40:55.991Z,12.43
2019-04-30T08:43:25.335Z,13.32
2019-04-30T08:45:59.374Z,10.65
2019-04-30T08:48:44.260Z,10.13
2019-04-30T08:51:05.118Z,14.05
2019-04-30T08:53:38.511Z,15.98
2019-04-30T08:56:10.966Z,13.40
2019-04-30T08:58:42.988Z,10.48
2019-04-30T09:01:15.009Z,12.50
2019-04-30T09:03:47.086Z,12.35
2019-04-30T09:06:29.129Z,9.18
2019-04-30T09:09:06.552Z,10.50
2019-04-30T09:11:51.855Z,11.70
2019-04-30T09:14:12.305Z,9.60
2019-04-30T09:16:44.503Z,10.80
2019-04-30T09:19:16.761Z,9.53
2019-04-30T09:21:48.969Z,10.47
2019-04-30T09:24:21.309Z,12.50
2019-04-30T09:26:53.371Z,13.13
2019-04-30T09:29:25.457Z,9.58
2019-04-30T09:31:59.420Z,7.62
2019-04-30T09:34:31.389Z,8.00
2019-04-30T09:37:03.479Z,8.53
2019-04-30T09:39:35.739Z,8.80
2019-04-30T09:42:09.271Z,10.23
2019-04-30T09:44:41.508Z,9.15
2019-04-30T09:47:13.632Z,9.10
2019-04-30T09:49:45.670Z,11.63
2019-04-30T09:52:19.247Z,9.40
2019-04-30T09:54:51.702Z,9.10
2019-04-30T09:57:24.263Z,8.55
2019-04-30T09:59:56.262Z,10.08
2019-04-30T10:02:29.064Z,11.53
2019-04-30T10:05:01.852Z,10.30
2019-04-30T10:07:34.454Z,9.60
2019-04-30T10:10:09.399Z,10.00
2019-04-30T10:12:41.038Z,13.43
2019-04-30T10:15:18.830Z,10.20
2019-04-30T10:17:50.674Z,9.73
2019-04-30T10:20:30.463Z,10.48
2019-04-30T10:23:02.467Z,8.85
2019-04-30T10:25:34.482Z,8.85
2019-04-30T10:28:06.876Z,8.48
2019-04-30T10:30:39.537Z,11.33
2019-04-30T10:33:11.525Z,9.08
2019-04-30T10:35:43.525Z,10.13
2019-04-30T10:38:15.540Z,9.18
2019-04-30T10:40:48.790Z,10.90
2019-04-30T10:43:20.913Z,9.58
2019-04-30T10:45:53.070Z,9.38
2019-04-30T10:48:25.490Z,7.90
2019-04-30T10:50:58.851Z,7.62
2019-04-30T10:53:31.616Z,8.23
2019-04-30T10:56:03.661Z,7.55
2019-04-30T10:58:35.793Z,7.72
2019-04-30T11:01:09.611Z,8.08
2019-04-30T11:03:42.964Z,7.00
2019-04-30T11:06:16.315Z,7.85
2019-04-30T11:08:50.730Z,8.10
2019-04-30T11:11:22.879Z,7.55
2019-04-30T11:13:54.884Z,7.60
2019-04-30T11:16:27.235Z,7.80
2019-04-30T11:18:59.380Z,8.30
2019-04-30T11:21:32.328Z,8.18
2019-04-30T11:24:05.041Z,8.93
2019-04-30T11:26:39.722Z,8.23
2019-04-30T11:29:11.298Z,10.13
2019-04-30T11:31:49.731Z,9.80
2019-04-30T11:34:22.215Z,10.28
2019-04-30T11:36:56.869Z,10.58
2019-04-30T11:39:29.784Z,10.97
2019-04-30T11:42:01.933Z,10.33
2019-04-30T11:44:33.995Z,12.77
2019-04-30T11:47:52.638Z,12.33
2019-04-30T11:50:16.160Z,11.03
2019-04-30T11:52:48.235Z,11.27
2019-04-30T11:55:20.325Z,14.43
2019-04-30T11:57:52.451Z,14.10
2019-04-30T12:00:32.188Z,12.37
2019-04-30T12:03:09.039Z,12.37
2019-04-30T12:05:41.634Z,13.67
2019-04-30T12:08:22.681Z,12.60
2019-04-30T12:11:24.715Z,12.80
2019-04-30T12:13:58.535Z,13.00
2019-04-30T12:16:33.604Z,11.40
2019-04-30T12:19:08.907Z,11.37
2019-04-30T12:21:43.265Z,10.30
2019-04-30T12:24:15.341Z,11.27
2019-04-30T12:26:51.092Z,10.67
2019-04-30T12:29:26.339Z,11.43
2019-04-30T12:31:58.404Z,11.63
2019-04-30T12:34:33.682Z,11.00
2019-04-30T12:37:05.754Z,12.63
2019-04-30T12:39:39.454Z,10.33
2019-04-30T12:42:12.878Z,11.50
2019-04-30T12:44:45.308Z,11.57
2019-04-30T12:47:21.474Z,10.37
2019-04-30T12:50:13.665Z,12.10
2019-04-30T12:52:50.392Z,12.23
2019-04-30T12:55:48.933Z,12.37
2019-04-30T12:58:23.073Z,12.70
2019-04-30T13:00:59.133Z,13.00
2019-04-30T13:03:32.929Z,10.83
2019-04-30T13:06:05.765Z,12.70
2019-04-30T13:08:39.592Z,12.37
2019-04-30T13:11:13.086Z,12.47
2019-04-30T13:13:50.492Z,11.50
2019-04-30T13:16:25.306Z,10.67
2019-04-30T13:18:59.395Z,10.27
2019-04-30T13:21:31.653Z,10.40
2019-04-30T13:24:03.704Z,9.57
2019-04-30T13:26:35.801Z,11.23
2019-04-30T13:29:16.966Z,11.43
2019-04-30T13:31:50.338Z,10.50
2019-04-30T13:34:50.202Z,11.50
2019-04-30T13:37:22.253Z,10.20
2019-04-30T13:40:20.113Z,12.30
2019-04-30T13:42:52.226Z,11.57
2019-04-30T13:45:25.417Z,12.53
2019-04-30T13:47:58.889Z,12.53
2019-04-30T13:50:32.319Z,11.77
2019-04-30T13:53:04.345Z,11.37
2019-04-30T13:55:43.635Z,10.67
2019-04-30T13:58:10.318Z,12.73
2019-04-30T14:00:42.296Z,11.77
2019-04-30T14:03:22.425Z,11.93
2019-04-30T14:05:54.572Z,12.60
2019-04-30T14:08:38.833Z,12.80
2019-04-30T14:11:11.134Z,12.70
2019-04-30T14:13:43.179Z,11.50
2019-04-30T14:16:15.905Z,11.70
2019-04-30T14:18:48.798Z,11.67
2019-04-30T14:21:32.250Z,11.90
2019-04-30T14:23:54.892Z,12.27
2019-04-30T14:26:26.933Z,12.87
2019-04-30T14:28:58.945Z,11.30
2019-04-30T14:31:30.996Z,12.03
2019-04-30T14:34:02.956Z,11.97
2019-04-30T14:36:34.928Z,13.70
2019-04-30T14:39:14.650Z,11.67
2019-04-30T14:41:44.189Z,9.87
2019-04-30T14:44:21.400Z,11.07
2019-04-30T14:47:12.368Z,13.83
2019-04-30T14:50:05.428Z,13.37
2019-04-30T14:52:44.751Z,11.40
2019-04-30T14:55:34.243Z,12.50
2019-04-30T14:58:29.333Z,10.97
2019-04-30T15:01:09.986Z,11.70
2019-04-30T15:03:42.062Z,11.23
2019-04-30T15:06:14.019Z,10.50
2019-04-30T15:08:46.013Z,13.63
2019-04-30T15:11:19.045Z,13.00
2019-04-30T15:13:51.328Z,13.47
2019-04-30T15:16:23.433Z,12.23
2019-04-30T15:18:55.488Z,11.10
2019-04-30T15:21:27.673Z,11.50
2019-04-30T15:24:23.211Z,11.57
2019-04-30T15:26:58.761Z,11.83
2019-04-30T15:29:29.599Z,11.40
2019-04-30T15:32:01.631Z,11.20
2019-04-30T15:34:33.656Z,11.40
2019-04-30T15:37:18.510Z,12.53
2019-04-30T15:39:41.040Z,12.43
2019-04-30T15:42:13.952Z,12.67
2019-04-30T15:44:46.175Z,13.57
2019-04-30T15:47:20.561Z,11.53
2019-04-30T15:49:52.574Z,12.47
2019-04-30T15:52:24.610Z,13.20
2019-04-30T15:54:56.646Z,13.07
2019-04-30T15:57:29.520Z,12.13
2019-04-30T16:00:01.810Z,10.93
2019-04-30T16:02:53.475Z,11.63
2019-04-30T16:05:41.272Z,11.80
2019-04-30T16:08:29.041Z,12.33
2019-04-30T16:11:27.053Z,12.40
2019-04-30T16:14:18.658Z,11.87
2019-04-30T16:17:13.850Z,11.97
2019-04-30T16:19:45.949Z,13.10
2019-04-30T16:22:19.231Z,13.27
2019-04-30T16:24:54.571Z,11.83
2019-04-30T16:27:25.587Z,11.13
2019-04-30T16:29:59.404Z,11.50
2019-04-30T16:32:31.301Z,10.60
2019-04-30T16:35:03.382Z,11.93
2019-04-30T16:37:35.475Z,11.90
2019-04-30T16:40:08.585Z,11.90
2019-04-30T16:42:41.385Z,12.27
2019-04-30T16:45:13.435Z,12.50
2019-04-30T16:47:45.412Z,13.63
2019-04-30T16:50:18.797Z,12.77
2019-04-30T16:52:50.909Z,13.10
2019-04-30T16:55:22.928Z,10.53
2019-04-30T16:57:54.923Z,12.53
2019-04-30T17:00:29.063Z,12.57
2019-04-30T17:03:05.511Z,13.60
2019-04-30T17:05:45.484Z,13.07
2019-04-30T17:08:39.403Z,12.20
2019-04-30T17:11:16.768Z,12.70
2019-04-30T17:13:52.739Z,15.07
2019-04-30T17:16:25.026Z,14.73
2019-04-30T17:18:59.008Z,14.90
2019-04-30T17:21:30.827Z,14.40
2019-04-30T17:24:02.905Z,14.63
2019-04-30T17:26:34.880Z,15.70
2019-04-30T17:29:07.035Z,13.93
2019-04-30T17:31:39.006Z,14.00
2019-04-30T17:34:11.485Z,14.93
2019-04-30T17:36:43.441Z,16.30
2019-04-30T17:39:18.105Z,13.70
2019-04-30T17:41:50.713Z,13.90
2019-04-30T17:44:22.674Z,10.87
2019-04-30T17:46:54.685Z,11.23
2019-04-30T17:49:29.878Z,11.67
2019-04-30T17:52:04.275Z,10.67
2019-04-30T17:54:36.283Z,10.00
2019-04-30T17:57:10.671Z,9.10
2019-04-30T17:59:42.904Z,9.33
2019-04-30T18:02:16.708Z,9.97
2019-04-30T18:04:48.772Z,11.37
2019-04-30T18:07:21.179Z,10.27
2019-04-30T18:09:54.423Z,11.10
2019-04-30T18:12:26.609Z,11.57
2019-04-30T18:15:00.025Z,11.23
2019-04-30T18:17:32.145Z,11.13
2019-04-30T18:20:21.283Z,11.23
2019-04-30T18:23:14.318Z,10.80
2019-04-30T18:25:53.557Z,11.77
2019-04-30T18:28:25.981Z,11.73
2019-04-30T18:30:59.031Z,12.73
2019-04-30T18:33:31.293Z,12.30
2019-04-30T18:36:03.297Z,12.73
2019-04-30T18:38:35.380Z,12.57
2019-04-30T18:41:09.339Z,12.37
2019-04-30T18:43:41.346Z,12.70
2019-04-30T18:46:13.446Z,12.70
2019-04-30T18:48:45.497Z,12.47
2019-04-30T18:51:32.931Z,12.70
2019-04-30T18:53:51.330Z,13.03
2019-04-30T18:56:23.348Z,11.63
2019-04-30T18:58:55.360Z,13.63
2019-04-30T19:01:27.435Z,11.53
2019-04-30T19:04:01.166Z,12.50
2019-04-30T19:06:33.302Z,12.53
2019-04-30T19:09:29.513Z,11.20
2019-04-30T19:12:11.775Z,11.63
2019-04-30T19:15:11.554Z,11.73
2019-04-30T19:18:08.184Z,11.33
2019-04-30T19:20:46.572Z,11.97
2019-04-30T19:23:19.103Z,10.93
2019-04-30T19:25:51.234Z,10.53
2019-04-30T19:28:23.264Z,11.37
2019-04-30T19:30:58.305Z,11.30
2019-04-30T19:33:31.070Z,12.07
2019-04-30T19:36:03.047Z,11.87
2019-04-30T19:38:35.053Z,12.30
2019-04-30T19:41:09.065Z,13.03
2019-04-30T19:43:41.284Z,13.27
2019-04-30T19:46:13.226Z,13.47
2019-04-30T19:48:45.385Z,14.17
2019-04-30T19:51:19.592Z,14.50
2019-04-30T19:53:51.512Z,13.27
2019-04-30T19:56:23.776Z,14.00
2019-04-30T19:59:02.903Z,13.37
2019-04-30T20:01:30.269Z,12.93
2019-04-30T20:04:02.659Z,12.93
2019-04-30T20:06:34.696Z,13.47
2019-04-30T20:09:08.947Z,17.37
2019-04-30T20:11:42.544Z,17.17
2019-04-30T20:14:14.810Z,18.17
2019-04-30T20:16:48.379Z,15.30
2019-04-30T20:19:20.732Z,14.80
2019-04-30T20:21:53.940Z,12.53
2019-04-30T20:24:26.236Z,13.70
2019-04-30T20:27:07.058Z,16.27
2019-04-30T20:29:32.337Z,15.73
2019-04-30T20:32:04.396Z,17.30
2019-04-30T20:34:36.596Z,16.37
2019-04-30T20:37:08.735Z,17.57
2019-04-30T20:39:52.606Z,17.37
2019-04-30T20:42:24.713Z,20.77
2019-04-30T20:44:58.782Z,17.50
2019-04-30T20:47:30.487Z,15.70
2019-04-30T20:50:02.557Z,15.17
2019-04-30T20:52:34.639Z,14.53
2019-04-30T20:55:06.808Z,16.17
2019-04-30T20:57:39.483Z,15.03
2019-04-30T21:00:11.839Z,14.60
2019-04-30T21:02:43.822Z,14.83
2019-04-30T21:05:15.857Z,14.40
2019-04-30T21:07:48.072Z,15.23
2019-04-30T21:10:21.660Z,15.00
2019-04-30T21:12:53.674Z,17.37
2019-04-30T21:15:25.722Z,18.30
2019-04-30T21:18:00.485Z,16.87
2019-04-30T21:20:38.831Z,16.67
2019-04-30T21:23:10.750Z,17.77
2019-04-30T21:25:44.514Z,16.27
2019-04-30T21:28:19.755Z,16.90
2019-04-30T21:30:52.442Z,16.00
2019-04-30T21:33:38.458Z,16.87
2019-04-30T21:36:18.894Z,16.03
2019-04-30T21:38:52.479Z,13.80
2019-04-30T21:41:25.375Z,16.47
2019-04-30T21:43:57.457Z,18.07
2019-04-30T21:46:29.574Z,17.37
2019-04-30T21:49:02.439Z,18.43
2019-04-30T21:51:34.556Z,17.17
2019-04-30T21:54:08.215Z,17.30
2019-04-30T21:56:40.306Z,14.53
2019-04-30T21:59:23.741Z,15.20
2019-04-30T22:01:47.815Z,17.00
2019-04-30T22:04:21.181Z,18.40
2019-04-30T22:06:53.327Z,16.60
2019-04-30T22:09:25.337Z,18.83
2019-04-30T22:11:59.131Z,17.03
2019-04-30T22:14:31.253Z,16.63
2019-04-30T22:17:03.399Z,16.60
2019-04-30T22:19:35.391Z,17.30
2019-04-30T22:22:09.260Z,16.80
2019-04-30T22:24:41.314Z,17.50
2019-04-30T22:27:13.343Z,17.23
2019-04-30T22:29:45.864Z,16.30
2019-04-30T22:32:17.978Z,16.87
2019-04-30T22:34:51.154Z,17.70
2019-04-30T22:37:23.619Z,17.13
2019-04-30T22:40:01.128Z,17.73
2019-04-30T22:42:34.738Z,17.73
2019-04-30T22:45:13.680Z,17.77
2019-04-30T22:47:50.195Z,18.03
2019-04-30T22:50:23.501Z,19.13
2019-04-30T22:52:55.563Z,18.93
2019-04-30T22:55:30.759Z,19.03
2019-04-30T22:58:03.039Z,18.80
2019-04-30T23:00:39.069Z,19.70
2019-04-30T23:03:14.342Z,18.37
2019-04-30T23:05:46.490Z,18.03
2019-04-30T23:08:18.846Z,16.73
2019-04-30T23:10:51.159Z,17.50
2019-04-30T23:13:23.331Z,18.63
2019-04-30T23:15:56.456Z,18.83
2019-04-30T23:18:28.450Z,19.00
2019-04-30T23:21:00.773Z,21.03
2019-04-30T23:23:32.857Z,19.60
2019-04-30T23:26:05.780Z,21.03
2019-04-30T23:28:38.058Z,22.67
2019-04-30T23:31:10.286Z,22.93
2019-04-30T23:33:42.295Z,23.30
2019-04-30T23:36:14.274Z,23.40
2019-04-30T23:38:46.322Z,22.17
2019-04-30T23:41:18.352Z,22.87
2019-04-30T23:43:50.737Z,23.07
2019-04-30T23:46:22.710Z,23.13
2019-04-30T23:48:54.842Z,19.30
2019-04-30T23:51:26.855Z,19.60
2019-04-30T23:53:58.830Z,21.73
2019-04-30T23:56:30.842Z,24.20
2019-04-30T23:59:02.814Z,20.33
